sensor_id;sensor_type;location;lat;lon;timestamp;P1;durP1;ratioP1;P2;durP2;ratioP2
13374;SDS011;6756;51.354;15.754;2023-08-06T00:01:03;3.77;;;3.47;;
13374;SDS011;6756;51.354;15.754;2023-08-06T00:05:04;5.17;;;3.50;;
13374;SDS011;6756;51.354;15.754;2023-08-06T00:09:05;3.90;;;2.90;;
13374;SDS011;6756;51.354;15.754;2023-08-06T00:13:06;3.60;;;3.20;;
13374;SDS011;6756;51.354;15.754;2023-08-06T00:17:07;4.23;;;2.97;;
13374;SDS011;6756;51.354;15.754;2023-08-06T00:21:07;3.50;;;3.10;;
13374;SDS011;6756;51.354;15.754;2023-08-06T00:25:08;3.10;;;2.87;;
13374;SDS011;6756;51.354;15.754;2023-08-06T00:29:09;3.27;;;2.97;;
13374;SDS011;6756;51.354;15.754;2023-08-06T00:33:10;3.67;;;3.20;;
13374;SDS011;6756;51.354;15.754;2023-08-06T00:37:10;3.03;;;2.63;;
13374;SDS011;6756;51.354;15.754;2023-08-06T00:41:14;2.93;;;2.73;;
13374;SDS011;6756;51.354;15.754;2023-08-06T00:45:15;3.40;;;2.63;;
13374;SDS011;6756;51.354;15.754;2023-08-06T00:49:16;2.87;;;2.67;;
13374;SDS011;6756;51.354;15.754;2023-08-06T00:53:17;3.33;;;3.03;;
13374;SDS011;6756;51.354;15.754;2023-08-06T00:57:17;3.30;;;2.73;;
13374;SDS011;6756;51.354;15.754;2023-08-06T01:01:20;3.80;;;2.53;;
13374;SDS011;6756;51.354;15.754;2023-08-06T01:05:21;4.70;;;2.50;;
13374;SDS011;6756;51.354;15.754;2023-08-06T01:13:38;3.00;;;2.80;;
13374;SDS011;6756;51.354;15.754;2023-08-06T01:17:51;2.93;;;2.67;;
13374;SDS011;6756;51.354;15.754;2023-08-06T01:21:53;5.30;;;2.57;;
13374;SDS011;6756;51.354;15.754;2023-08-06T01:30:26;3.83;;;2.83;;
13374;SDS011;6756;51.354;15.754;2023-08-06T01:34:31;2.97;;;2.73;;
13374;SDS011;6756;51.354;15.754;2023-08-06T01:38:33;2.90;;;2.30;;
13374;SDS011;6756;51.354;15.754;2023-08-06T01:42:34;3.00;;;2.27;;
13374;SDS011;6756;51.354;15.754;2023-08-06T01:46:35;2.87;;;2.47;;
13374;SDS011;6756;51.354;15.754;2023-08-06T01:50:36;2.57;;;2.37;;
13374;SDS011;6756;51.354;15.754;2023-08-06T01:54:37;2.60;;;2.40;;
13374;SDS011;6756;51.354;15.754;2023-08-06T01:58:37;2.57;;;2.37;;
13374;SDS011;6756;51.354;15.754;2023-08-06T02:02:38;2.40;;;2.10;;
13374;SDS011;6756;51.354;15.754;2023-08-06T02:06:41;2.47;;;2.27;;
13374;SDS011;6756;51.354;15.754;2023-08-06T02:10:41;3.33;;;2.20;;
13374;SDS011;6756;51.354;15.754;2023-08-06T02:14:42;3.97;;;2.53;;
13374;SDS011;6756;51.354;15.754;2023-08-06T02:18:43;2.70;;;2.27;;
13374;SDS011;6756;51.354;15.754;2023-08-06T02:22:44;2.60;;;2.30;;
13374;SDS011;6756;51.354;15.754;2023-08-06T02:26:44;4.43;;;2.43;;
13374;SDS011;6756;51.354;15.754;2023-08-06T02:30:53;2.70;;;2.30;;
13374;SDS011;6756;51.354;15.754;2023-08-06T02:34:53;5.03;;;2.30;;
13374;SDS011;6756;51.354;15.754;2023-08-06T02:38:55;2.53;;;2.33;;
13374;SDS011;6756;51.354;15.754;2023-08-06T02:42:56;2.37;;;2.17;;
13374;SDS011;6756;51.354;15.754;2023-08-06T02:46:56;2.50;;;2.30;;
13374;SDS011;6756;51.354;15.754;2023-08-06T02:50:57;2.10;;;1.90;;
13374;SDS011;6756;51.354;15.754;2023-08-06T02:54:59;2.40;;;2.20;;
13374;SDS011;6756;51.354;15.754;2023-08-06T02:59:00;2.93;;;2.30;;
13374;SDS011;6756;51.354;15.754;2023-08-06T03:03:01;2.77;;;2.33;;
13374;SDS011;6756;51.354;15.754;2023-08-06T03:07:01;2.10;;;1.90;;
13374;SDS011;6756;51.354;15.754;2023-08-06T03:11:02;2.10;;;1.70;;
13374;SDS011;6756;51.354;15.754;2023-08-06T03:15:03;3.13;;;2.13;;
13374;SDS011;6756;51.354;15.754;2023-08-06T03:19:04;2.20;;;2.00;;
13374;SDS011;6756;51.354;15.754;2023-08-06T03:23:04;2.20;;;2.00;;
13374;SDS011;6756;51.354;15.754;2023-08-06T03:27:05;2.20;;;2.00;;
13374;SDS011;6756;51.354;15.754;2023-08-06T03:31:06;2.20;;;2.00;;
13374;SDS011;6756;51.354;15.754;2023-08-06T03:35:07;2.00;;;1.90;;
13374;SDS011;6756;51.354;15.754;2023-08-06T03:39:08;3.97;;;2.03;;
13374;SDS011;6756;51.354;15.754;2023-08-06T03:43:13;2.27;;;2.07;;
13374;SDS011;6756;51.354;15.754;2023-08-06T03:47:14;2.20;;;2.00;;
13374;SDS011;6756;51.354;15.754;2023-08-06T03:51:15;2.67;;;1.73;;
13374;SDS011;6756;51.354;15.754;2023-08-06T03:55:16;2.40;;;2.20;;
13374;SDS011;6756;51.354;15.754;2023-08-06T03:59:17;2.50;;;2.00;;
13374;SDS011;6756;51.354;15.754;2023-08-06T04:03:17;2.33;;;2.10;;
13374;SDS011;6756;51.354;15.754;2023-08-06T04:07:18;2.57;;;2.37;;
13374;SDS011;6756;51.354;15.754;2023-08-06T04:11:19;2.77;;;2.00;;
13374;SDS011;6756;51.354;15.754;2023-08-06T04:15:20;2.07;;;1.87;;
13374;SDS011;6756;51.354;15.754;2023-08-06T04:19:23;3.30;;;1.90;;
13374;SDS011;6756;51.354;15.754;2023-08-06T04:23:24;2.33;;;1.93;;
13374;SDS011;6756;51.354;15.754;2023-08-06T04:27:25;1.80;;;1.70;;
13374;SDS011;6756;51.354;15.754;2023-08-06T04:31:26;2.03;;;1.87;;
13374;SDS011;6756;51.354;15.754;2023-08-06T04:35:26;1.93;;;1.80;;
13374;SDS011;6756;51.354;15.754;2023-08-06T04:39:27;2.20;;;2.00;;
13374;SDS011;6756;51.354;15.754;2023-08-06T04:43:28;2.40;;;2.20;;
13374;SDS011;6756;51.354;15.754;2023-08-06T04:47:29;2.00;;;1.80;;
13374;SDS011;6756;51.354;15.754;2023-08-06T04:51:29;3.83;;;1.77;;
13374;SDS011;6756;51.354;15.754;2023-08-06T04:55:30;2.13;;;1.93;;
13374;SDS011;6756;51.354;15.754;2023-08-06T04:59:31;2.40;;;2.20;;
13374;SDS011;6756;51.354;15.754;2023-08-06T05:03:32;1.83;;;1.73;;
13374;SDS011;6756;51.354;15.754;2023-08-06T05:07:32;2.10;;;1.90;;
13374;SDS011;6756;51.354;15.754;2023-08-06T05:11:33;2.30;;;2.10;;
13374;SDS011;6756;51.354;15.754;2023-08-06T05:15:34;2.93;;;2.40;;
13374;SDS011;6756;51.354;15.754;2023-08-06T05:19:35;2.20;;;1.90;;
13374;SDS011;6756;51.354;15.754;2023-08-06T05:23:36;2.10;;;1.97;;
13374;SDS011;6756;51.354;15.754;2023-08-06T05:27:36;2.07;;;1.97;;
13374;SDS011;6756;51.354;15.754;2023-08-06T05:31:37;2.80;;;2.50;;
13374;SDS011;6756;51.354;15.754;2023-08-06T05:35:38;2.20;;;2.00;;
13374;SDS011;6756;51.354;15.754;2023-08-06T05:39:40;2.30;;;2.10;;
13374;SDS011;6756;51.354;15.754;2023-08-06T05:43:41;2.37;;;2.17;;
13374;SDS011;6756;51.354;15.754;2023-08-06T05:47:42;2.30;;;2.10;;
13374;SDS011;6756;51.354;15.754;2023-08-06T05:51:46;3.07;;;2.37;;
13374;SDS011;6756;51.354;15.754;2023-08-06T05:55:47;2.50;;;2.30;;
13374;SDS011;6756;51.354;15.754;2023-08-06T05:59:48;2.80;;;2.40;;
13374;SDS011;6756;51.354;15.754;2023-08-06T06:03:49;2.60;;;2.40;;
13374;SDS011;6756;51.354;15.754;2023-08-06T06:07:49;2.50;;;2.30;;
13374;SDS011;6756;51.354;15.754;2023-08-06T06:11:50;2.80;;;2.60;;
13374;SDS011;6756;51.354;15.754;2023-08-06T06:15:54;3.23;;;2.57;;
13374;SDS011;6756;51.354;15.754;2023-08-06T06:19:56;2.63;;;2.43;;
13374;SDS011;6756;51.354;15.754;2023-08-06T06:23:57;3.97;;;3.67;;
13374;SDS011;6756;51.354;15.754;2023-08-06T06:27:57;3.80;;;3.17;;
13374;SDS011;6756;51.354;15.754;2023-08-06T06:31:59;3.33;;;2.80;;
13374;SDS011;6756;51.354;15.754;2023-08-06T06:35:59;3.17;;;2.87;;
13374;SDS011;6756;51.354;15.754;2023-08-06T06:40:00;4.97;;;2.70;;
13374;SDS011;6756;51.354;15.754;2023-08-06T06:44:01;3.07;;;2.87;;
13374;SDS011;6756;51.354;15.754;2023-08-06T06:48:02;2.60;;;2.40;;
13374;SDS011;6756;51.354;15.754;2023-08-06T06:52:03;2.93;;;2.73;;
13374;SDS011;6756;51.354;15.754;2023-08-06T06:56:04;2.60;;;2.40;;
13374;SDS011;6756;51.354;15.754;2023-08-06T07:00:05;3.20;;;2.90;;
13374;SDS011;6756;51.354;15.754;2023-08-06T07:04:06;2.90;;;2.53;;
13374;SDS011;6756;51.354;15.754;2023-08-06T07:08:07;2.67;;;2.47;;
13374;SDS011;6756;51.354;15.754;2023-08-06T07:12:08;2.53;;;2.33;;
13374;SDS011;6756;51.354;15.754;2023-08-06T07:16:08;2.43;;;2.17;;
13374;SDS011;6756;51.354;15.754;2023-08-06T07:20:09;2.70;;;2.50;;
13374;SDS011;6756;51.354;15.754;2023-08-06T07:24:10;2.40;;;2.20;;
13374;SDS011;6756;51.354;15.754;2023-08-06T07:28:12;3.37;;;2.20;;
13374;SDS011;6756;51.354;15.754;2023-08-06T07:32:14;2.30;;;2.10;;
13374;SDS011;6756;51.354;15.754;2023-08-06T07:36:15;1.90;;;1.80;;
13374;SDS011;6756;51.354;15.754;2023-08-06T07:40:15;2.80;;;1.73;;
13374;SDS011;6756;51.354;15.754;2023-08-06T07:44:17;1.60;;;1.50;;
13374;SDS011;6756;51.354;15.754;2023-08-06T07:48:18;1.70;;;1.60;;
13374;SDS011;6756;51.354;15.754;2023-08-06T07:52:19;2.00;;;1.73;;
13374;SDS011;6756;51.354;15.754;2023-08-06T07:56:20;1.60;;;1.50;;
13374;SDS011;6756;51.354;15.754;2023-08-06T08:00:21;2.67;;;2.17;;
13374;SDS011;6756;51.354;15.754;2023-08-06T08:04:23;3.70;;;2.30;;
13374;SDS011;6756;51.354;15.754;2023-08-06T08:08:24;2.60;;;2.40;;
13374;SDS011;6756;51.354;15.754;2023-08-06T08:12:25;3.63;;;2.60;;
13374;SDS011;6756;51.354;15.754;2023-08-06T08:16:26;3.60;;;3.30;;
13374;SDS011;6756;51.354;15.754;2023-08-06T08:20:27;4.10;;;3.70;;
13374;SDS011;6756;51.354;15.754;2023-08-06T08:24:31;3.80;;;3.50;;
13374;SDS011;6756;51.354;15.754;2023-08-06T08:28:32;4.73;;;3.27;;
13374;SDS011;6756;51.354;15.754;2023-08-06T08:32:33;3.50;;;3.20;;
13374;SDS011;6756;51.354;15.754;2023-08-06T08:36:34;3.63;;;3.20;;
13374;SDS011;6756;51.354;15.754;2023-08-06T08:40:36;3.20;;;2.87;;
13374;SDS011;6756;51.354;15.754;2023-08-06T08:44:47;3.60;;;3.30;;
13374;SDS011;6756;51.354;15.754;2023-08-06T08:48:48;3.00;;;2.80;;
13374;SDS011;6756;51.354;15.754;2023-08-06T08:52:49;2.80;;;2.60;;
13374;SDS011;6756;51.354;15.754;2023-08-06T08:56:51;3.17;;;2.93;;
13374;SDS011;6756;51.354;15.754;2023-08-06T09:00:51;2.90;;;2.70;;
13374;SDS011;6756;51.354;15.754;2023-08-06T09:04:53;3.70;;;3.37;;
13374;SDS011;6756;51.354;15.754;2023-08-06T09:09:01;2.83;;;2.63;;
13374;SDS011;6756;51.354;15.754;2023-08-06T09:13:09;2.83;;;2.40;;
13374;SDS011;6756;51.354;15.754;2023-08-06T09:17:12;2.53;;;2.33;;
13374;SDS011;6756;51.354;15.754;2023-08-06T09:21:14;2.43;;;2.23;;
13374;SDS011;6756;51.354;15.754;2023-08-06T09:25:24;2.40;;;2.20;;
13374;SDS011;6756;51.354;15.754;2023-08-06T09:29:26;2.33;;;2.13;;
13374;SDS011;6756;51.354;15.754;2023-08-06T09:33:32;2.33;;;2.13;;
13374;SDS011;6756;51.354;15.754;2023-08-06T09:37:36;2.30;;;1.77;;
13374;SDS011;6756;51.354;15.754;2023-08-06T09:41:36;2.43;;;1.70;;
13374;SDS011;6756;51.354;15.754;2023-08-06T09:45:38;1.67;;;1.57;;
13374;SDS011;6756;51.354;15.754;2023-08-06T09:53:47;2.00;;;1.80;;
13374;SDS011;6756;51.354;15.754;2023-08-06T09:57:49;2.13;;;1.70;;
13374;SDS011;6756;51.354;15.754;2023-08-06T10:01:51;2.27;;;1.80;;
13374;SDS011;6756;51.354;15.754;2023-08-06T10:05:55;1.83;;;1.73;;
13374;SDS011;6756;51.354;15.754;2023-08-06T10:09:56;2.73;;;2.00;;
13374;SDS011;6756;51.354;15.754;2023-08-06T10:14:22;2.30;;;2.10;;
13374;SDS011;6756;51.354;15.754;2023-08-06T10:18:30;2.20;;;2.00;;
13374;SDS011;6756;51.354;15.754;2023-08-06T10:22:32;2.50;;;2.17;;
13374;SDS011;6756;51.354;15.754;2023-08-06T10:26:33;2.87;;;1.63;;
13374;SDS011;6756;51.354;15.754;2023-08-06T10:30:34;2.30;;;2.07;;
13374;SDS011;6756;51.354;15.754;2023-08-06T10:34:55;2.27;;;2.07;;
13374;SDS011;6756;51.354;15.754;2023-08-06T10:38:58;2.40;;;2.00;;
13374;SDS011;6756;51.354;15.754;2023-08-06T10:43:02;2.63;;;2.43;;
13374;SDS011;6756;51.354;15.754;2023-08-06T10:51:44;4.17;;;3.73;;
13374;SDS011;6756;51.354;15.754;2023-08-06T10:55:45;4.27;;;3.87;;
13374;SDS011;6756;51.354;15.754;2023-08-06T10:59:46;4.40;;;4.00;;
13374;SDS011;6756;51.354;15.754;2023-08-06T11:03:47;4.83;;;4.43;;
13374;SDS011;6756;51.354;15.754;2023-08-06T11:07:50;5.17;;;4.77;;
13374;SDS011;6756;51.354;15.754;2023-08-06T11:11:51;6.10;;;4.97;;
13374;SDS011;6756;51.354;15.754;2023-08-06T11:15:52;5.63;;;5.13;;
13374;SDS011;6756;51.354;15.754;2023-08-06T11:19:54;6.37;;;5.77;;
13374;SDS011;6756;51.354;15.754;2023-08-06T11:23:55;6.23;;;5.60;;
13374;SDS011;6756;51.354;15.754;2023-08-06T11:27:56;6.13;;;5.57;;
13374;SDS011;6756;51.354;15.754;2023-08-06T11:32:03;6.67;;;6.07;;
13374;SDS011;6756;51.354;15.754;2023-08-06T11:36:04;6.67;;;6.07;;
13374;SDS011;6756;51.354;15.754;2023-08-06T11:40:08;6.93;;;6.33;;
13374;SDS011;6756;51.354;15.754;2023-08-06T11:44:11;6.90;;;6.30;;
13374;SDS011;6756;51.354;15.754;2023-08-06T11:48:13;6.37;;;5.77;;
13374;SDS011;6756;51.354;15.754;2023-08-06T11:52:24;6.43;;;5.83;;
13374;SDS011;6756;51.354;15.754;2023-08-06T11:56:26;6.50;;;5.90;;
13374;SDS011;6756;51.354;15.754;2023-08-06T12:00:28;5.87;;;5.33;;
13374;SDS011;6756;51.354;15.754;2023-08-06T12:04:29;6.83;;;6.10;;
13374;SDS011;6756;51.354;15.754;2023-08-06T12:08:30;6.03;;;5.43;;
13374;SDS011;6756;51.354;15.754;2023-08-06T12:12:31;6.03;;;5.53;;
13374;SDS011;6756;51.354;15.754;2023-08-06T12:16:31;5.93;;;5.33;;
13374;SDS011;6756;51.354;15.754;2023-08-06T12:20:32;5.83;;;5.33;;
13374;SDS011;6756;51.354;15.754;2023-08-06T12:24:33;5.60;;;5.10;;
13374;SDS011;6756;51.354;15.754;2023-08-06T12:28:34;5.97;;;5.20;;
13374;SDS011;6756;51.354;15.754;2023-08-06T12:32:35;4.90;;;4.50;;
13374;SDS011;6756;51.354;15.754;2023-08-06T12:36:36;5.17;;;4.67;;
13374;SDS011;6756;51.354;15.754;2023-08-06T12:40:37;5.27;;;4.77;;
13374;SDS011;6756;51.354;15.754;2023-08-06T12:44:38;4.90;;;4.50;;
13374;SDS011;6756;51.354;15.754;2023-08-06T12:48:39;4.67;;;4.27;;
13374;SDS011;6756;51.354;15.754;2023-08-06T12:52:39;4.27;;;3.87;;
13374;SDS011;6756;51.354;15.754;2023-08-06T12:56:40;4.07;;;3.77;;
13374;SDS011;6756;51.354;15.754;2023-08-06T13:00:41;3.70;;;3.40;;
13374;SDS011;6756;51.354;15.754;2023-08-06T13:04:42;6.50;;;4.00;;
13374;SDS011;6756;51.354;15.754;2023-08-06T13:08:43;3.80;;;3.47;;
13374;SDS011;6756;51.354;15.754;2023-08-06T13:12:44;4.10;;;3.80;;
13374;SDS011;6756;51.354;15.754;2023-08-06T13:16:44;3.83;;;3.53;;
13374;SDS011;6756;51.354;15.754;2023-08-06T13:20:45;3.40;;;3.13;;
13374;SDS011;6756;51.354;15.754;2023-08-06T13:24:49;3.10;;;2.90;;
13374;SDS011;6756;51.354;15.754;2023-08-06T13:28:50;4.40;;;2.73;;
13374;SDS011;6756;51.354;15.754;2023-08-06T13:32:51;2.60;;;2.40;;
13374;SDS011;6756;51.354;15.754;2023-08-06T13:36:52;2.53;;;2.33;;
13374;SDS011;6756;51.354;15.754;2023-08-06T13:40:52;3.27;;;2.97;;
13374;SDS011;6756;51.354;15.754;2023-08-06T13:44:53;3.07;;;2.87;;
13374;SDS011;6756;51.354;15.754;2023-08-06T13:48:59;2.60;;;2.40;;
13374;SDS011;6756;51.354;15.754;2023-08-06T13:53:00;4.10;;;2.70;;
13374;SDS011;6756;51.354;15.754;2023-08-06T13:57:02;2.67;;;2.47;;
13374;SDS011;6756;51.354;15.754;2023-08-06T14:01:03;2.73;;;2.50;;
13374;SDS011;6756;51.354;15.754;2023-08-06T14:05:05;3.73;;;2.80;;
13374;SDS011;6756;51.354;15.754;2023-08-06T14:09:07;3.83;;;2.40;;
13374;SDS011;6756;51.354;15.754;2023-08-06T14:13:08;2.70;;;2.50;;
13374;SDS011;6756;51.354;15.754;2023-08-06T14:17:09;2.93;;;2.70;;
13374;SDS011;6756;51.354;15.754;2023-08-06T14:21:10;2.60;;;2.40;;
13374;SDS011;6756;51.354;15.754;2023-08-06T14:25:14;2.87;;;2.67;;
13374;SDS011;6756;51.354;15.754;2023-08-06T14:29:15;3.20;;;2.57;;
13374;SDS011;6756;51.354;15.754;2023-08-06T14:33:15;2.63;;;2.43;;
13374;SDS011;6756;51.354;15.754;2023-08-06T14:37:16;2.67;;;2.20;;
13374;SDS011;6756;51.354;15.754;2023-08-06T14:41:17;2.60;;;2.40;;
13374;SDS011;6756;51.354;15.754;2023-08-06T14:45:18;3.00;;;2.30;;
13374;SDS011;6756;51.354;15.754;2023-08-06T14:49:19;2.30;;;2.10;;
13374;SDS011;6756;51.354;15.754;2023-08-06T14:53:20;3.33;;;2.27;;
13374;SDS011;6756;51.354;15.754;2023-08-06T14:57:21;2.83;;;2.53;;
13374;SDS011;6756;51.354;15.754;2023-08-06T15:01:27;2.40;;;2.20;;
13374;SDS011;6756;51.354;15.754;2023-08-06T15:05:31;2.17;;;1.97;;
13374;SDS011;6756;51.354;15.754;2023-08-06T15:09:32;2.27;;;2.03;;
13374;SDS011;6756;51.354;15.754;2023-08-06T15:13:33;2.40;;;2.10;;
13374;SDS011;6756;51.354;15.754;2023-08-06T15:17:33;2.67;;;2.47;;
13374;SDS011;6756;51.354;15.754;2023-08-06T15:21:34;5.37;;;2.40;;
13374;SDS011;6756;51.354;15.754;2023-08-06T15:25:35;2.73;;;2.17;;
13374;SDS011;6756;51.354;15.754;2023-08-06T15:29:37;4.10;;;1.93;;
13374;SDS011;6756;51.354;15.754;2023-08-06T15:33:38;2.17;;;1.97;;
13374;SDS011;6756;51.354;15.754;2023-08-06T15:37:40;2.13;;;1.93;;
13374;SDS011;6756;51.354;15.754;2023-08-06T15:41:41;2.20;;;1.97;;
13374;SDS011;6756;51.354;15.754;2023-08-06T15:45:42;2.63;;;2.10;;
13374;SDS011;6756;51.354;15.754;2023-08-06T15:49:45;2.27;;;2.07;;
13374;SDS011;6756;51.354;15.754;2023-08-06T15:53:46;2.40;;;2.20;;
13374;SDS011;6756;51.354;15.754;2023-08-06T15:57:46;3.10;;;2.90;;
13374;SDS011;6756;51.354;15.754;2023-08-06T16:01:49;3.20;;;2.73;;
13374;SDS011;6756;51.354;15.754;2023-08-06T16:05:50;4.53;;;3.00;;
13374;SDS011;6756;51.354;15.754;2023-08-06T16:09:52;2.90;;;2.70;;
13374;SDS011;6756;51.354;15.754;2023-08-06T16:13:53;3.10;;;2.80;;
13374;SDS011;6756;51.354;15.754;2023-08-06T16:17:54;3.40;;;3.00;;
13374;SDS011;6756;51.354;15.754;2023-08-06T16:21:57;2.83;;;2.60;;
13374;SDS011;6756;51.354;15.754;2023-08-06T16:25:58;3.17;;;2.87;;
13374;SDS011;6756;51.354;15.754;2023-08-06T16:29:58;5.07;;;2.80;;
13374;SDS011;6756;51.354;15.754;2023-08-06T16:33:59;2.30;;;2.10;;
13374;SDS011;6756;51.354;15.754;2023-08-06T16:38:00;2.47;;;2.27;;
13374;SDS011;6756;51.354;15.754;2023-08-06T16:42:01;2.67;;;2.27;;
13374;SDS011;6756;51.354;15.754;2023-08-06T16:46:02;2.60;;;2.27;;
13374;SDS011;6756;51.354;15.754;2023-08-06T16:50:03;2.50;;;1.90;;
13374;SDS011;6756;51.354;15.754;2023-08-06T16:54:06;3.80;;;2.30;;
13374;SDS011;6756;51.354;15.754;2023-08-06T16:58:07;4.30;;;2.23;;
13374;SDS011;6756;51.354;15.754;2023-08-06T17:02:07;2.40;;;2.20;;
13374;SDS011;6756;51.354;15.754;2023-08-06T17:06:08;4.17;;;2.77;;
13374;SDS011;6756;51.354;15.754;2023-08-06T17:10:14;2.47;;;2.27;;
13374;SDS011;6756;51.354;15.754;2023-08-06T17:14:19;2.60;;;2.40;;
13374;SDS011;6756;51.354;15.754;2023-08-06T17:18:20;3.00;;;2.23;;
13374;SDS011;6756;51.354;15.754;2023-08-06T17:22:21;2.67;;;2.30;;
13374;SDS011;6756;51.354;15.754;2023-08-06T17:26:22;4.07;;;2.60;;
13374;SDS011;6756;51.354;15.754;2023-08-06T17:30:23;2.70;;;2.50;;
13374;SDS011;6756;51.354;15.754;2023-08-06T17:34:24;2.87;;;2.57;;
13374;SDS011;6756;51.354;15.754;2023-08-06T17:38:24;4.53;;;3.00;;
13374;SDS011;6756;51.354;15.754;2023-08-06T17:42:26;4.00;;;3.37;;
13374;SDS011;6756;51.354;15.754;2023-08-06T17:46:26;4.27;;;3.70;;
13374;SDS011;6756;51.354;15.754;2023-08-06T17:50:27;4.20;;;3.90;;
13374;SDS011;6756;51.354;15.754;2023-08-06T17:54:28;4.10;;;3.80;;
13374;SDS011;6756;51.354;15.754;2023-08-06T17:58:29;4.40;;;4.00;;
13374;SDS011;6756;51.354;15.754;2023-08-06T18:02:30;4.47;;;4.07;;
13374;SDS011;6756;51.354;15.754;2023-08-06T18:06:30;4.30;;;4.00;;
13374;SDS011;6756;51.354;15.754;2023-08-06T18:10:31;7.80;;;4.17;;
13374;SDS011;6756;51.354;15.754;2023-08-06T18:14:32;5.13;;;4.30;;
13374;SDS011;6756;51.354;15.754;2023-08-06T18:18:33;5.53;;;4.50;;
13374;SDS011;6756;51.354;15.754;2023-08-06T18:22:34;6.07;;;4.60;;
13374;SDS011;6756;51.354;15.754;2023-08-06T18:26:35;5.27;;;4.67;;
13374;SDS011;6756;51.354;15.754;2023-08-06T18:30:36;6.47;;;5.77;;
13374;SDS011;6756;51.354;15.754;2023-08-06T18:34:37;7.17;;;5.50;;
13374;SDS011;6756;51.354;15.754;2023-08-06T18:38:38;6.27;;;5.67;;
13374;SDS011;6756;51.354;15.754;2023-08-06T18:42:39;6.03;;;5.47;;
13374;SDS011;6756;51.354;15.754;2023-08-06T18:46:40;6.57;;;5.87;;
13374;SDS011;6756;51.354;15.754;2023-08-06T18:50:45;5.60;;;5.13;;
13374;SDS011;6756;51.354;15.754;2023-08-06T18:54:46;7.23;;;6.20;;
13374;SDS011;6756;51.354;15.754;2023-08-06T18:58:47;7.57;;;5.67;;
13374;SDS011;6756;51.354;15.754;2023-08-06T19:02:48;7.03;;;6.37;;
13374;SDS011;6756;51.354;15.754;2023-08-06T19:06:49;9.27;;;7.23;;
13374;SDS011;6756;51.354;15.754;2023-08-06T19:10:50;7.73;;;7.03;;
13374;SDS011;6756;51.354;15.754;2023-08-06T19:14:51;6.93;;;6.33;;
13374;SDS011;6756;51.354;15.754;2023-08-06T19:18:52;7.03;;;6.33;;
13374;SDS011;6756;51.354;15.754;2023-08-06T19:22:53;7.50;;;6.80;;
13374;SDS011;6756;51.354;15.754;2023-08-06T19:26:54;7.57;;;6.87;;
13374;SDS011;6756;51.354;15.754;2023-08-06T19:30:55;7.60;;;6.90;;
13374;SDS011;6756;51.354;15.754;2023-08-06T19:34:56;7.37;;;6.67;;
13374;SDS011;6756;51.354;15.754;2023-08-06T19:38:57;6.73;;;6.13;;
13374;SDS011;6756;51.354;15.754;2023-08-06T19:42:58;7.73;;;6.13;;
13374;SDS011;6756;51.354;15.754;2023-08-06T19:46:59;7.97;;;6.60;;
13374;SDS011;6756;51.354;15.754;2023-08-06T19:51:05;6.03;;;5.53;;
13374;SDS011;6756;51.354;15.754;2023-08-06T19:55:06;6.87;;;5.73;;
13374;SDS011;6756;51.354;15.754;2023-08-06T19:59:08;7.23;;;6.40;;
13374;SDS011;6756;51.354;15.754;2023-08-06T20:03:09;6.70;;;6.10;;
13374;SDS011;6756;51.354;15.754;2023-08-06T20:07:10;9.33;;;6.23;;
13374;SDS011;6756;51.354;15.754;2023-08-06T20:11:12;8.00;;;6.13;;
13374;SDS011;6756;51.354;15.754;2023-08-06T20:15:14;7.03;;;6.43;;
13374;SDS011;6756;51.354;15.754;2023-08-06T20:19:15;8.77;;;6.37;;
13374;SDS011;6756;51.354;15.754;2023-08-06T20:23:16;7.23;;;6.57;;
13374;SDS011;6756;51.354;15.754;2023-08-06T20:27:16;8.50;;;6.33;;
13374;SDS011;6756;51.354;15.754;2023-08-06T20:31:17;7.67;;;6.83;;
13374;SDS011;6756;51.354;15.754;2023-08-06T20:35:18;7.87;;;6.80;;
13374;SDS011;6756;51.354;15.754;2023-08-06T20:39:19;7.03;;;6.23;;
13374;SDS011;6756;51.354;15.754;2023-08-06T20:43:20;7.83;;;6.17;;
13374;SDS011;6756;51.354;15.754;2023-08-06T20:47:21;8.33;;;7.20;;
13374;SDS011;6756;51.354;15.754;2023-08-06T20:51:22;8.60;;;6.87;;
13374;SDS011;6756;51.354;15.754;2023-08-06T20:55:26;9.13;;;6.57;;
13374;SDS011;6756;51.354;15.754;2023-08-06T20:59:27;7.57;;;6.87;;
13374;SDS011;6756;51.354;15.754;2023-08-06T21:03:29;8.07;;;7.27;;
13374;SDS011;6756;51.354;15.754;2023-08-06T21:07:30;6.77;;;6.07;;
13374;SDS011;6756;51.354;15.754;2023-08-06T21:11:31;6.87;;;6.27;;
13374;SDS011;6756;51.354;15.754;2023-08-06T21:15:32;5.67;;;5.10;;
13374;SDS011;6756;51.354;15.754;2023-08-06T21:19:33;5.20;;;4.80;;
13374;SDS011;6756;51.354;15.754;2023-08-06T21:23:34;6.13;;;5.53;;
13374;SDS011;6756;51.354;15.754;2023-08-06T21:27:35;5.83;;;4.80;;
13374;SDS011;6756;51.354;15.754;2023-08-06T21:31:37;5.73;;;5.23;;
13374;SDS011;6756;51.354;15.754;2023-08-06T21:35:38;10.70;;;5.27;;
13374;SDS011;6756;51.354;15.754;2023-08-06T21:39:38;6.30;;;4.97;;
13374;SDS011;6756;51.354;15.754;2023-08-06T21:43:41;5.17;;;4.67;;
13374;SDS011;6756;51.354;15.754;2023-08-06T21:47:47;6.40;;;5.33;;
13374;SDS011;6756;51.354;15.754;2023-08-06T21:51:48;5.67;;;4.93;;
13374;SDS011;6756;51.354;15.754;2023-08-06T21:55:49;5.13;;;4.63;;
13374;SDS011;6756;51.354;15.754;2023-08-06T21:59:50;4.97;;;4.47;;
13374;SDS011;6756;51.354;15.754;2023-08-06T22:03:50;5.03;;;4.60;;
13374;SDS011;6756;51.354;15.754;2023-08-06T22:07:51;5.00;;;4.53;;
13374;SDS011;6756;51.354;15.754;2023-08-06T22:11:52;6.07;;;5.13;;
13374;SDS011;6756;51.354;15.754;2023-08-06T22:15:53;5.43;;;4.93;;
13374;SDS011;6756;51.354;15.754;2023-08-06T22:19:54;5.63;;;5.00;;
13374;SDS011;6756;51.354;15.754;2023-08-06T22:23:55;5.37;;;4.87;;
13374;SDS011;6756;51.354;15.754;2023-08-06T22:27:56;6.30;;;4.83;;
13374;SDS011;6756;51.354;15.754;2023-08-06T22:31:57;7.63;;;4.90;;
13374;SDS011;6756;51.354;15.754;2023-08-06T22:35:59;5.37;;;4.87;;
13374;SDS011;6756;51.354;15.754;2023-08-06T22:40:00;5.57;;;5.07;;
13374;SDS011;6756;51.354;15.754;2023-08-06T22:44:03;6.27;;;4.90;;
13374;SDS011;6756;51.354;15.754;2023-08-06T22:48:03;5.83;;;5.33;;
13374;SDS011;6756;51.354;15.754;2023-08-06T22:52:04;6.07;;;5.53;;
13374;SDS011;6756;51.354;15.754;2023-08-06T22:56:06;6.63;;;5.20;;
13374;SDS011;6756;51.354;15.754;2023-08-06T23:00:07;6.30;;;5.70;;
13374;SDS011;6756;51.354;15.754;2023-08-06T23:04:08;6.97;;;5.40;;
13374;SDS011;6756;51.354;15.754;2023-08-06T23:08:09;5.93;;;5.43;;
13374;SDS011;6756;51.354;15.754;2023-08-06T23:12:09;5.90;;;5.37;;
13374;SDS011;6756;51.354;15.754;2023-08-06T23:16:10;8.67;;;6.43;;
13374;SDS011;6756;51.354;15.754;2023-08-06T23:20:12;8.43;;;6.20;;
13374;SDS011;6756;51.354;15.754;2023-08-06T23:24:13;6.87;;;5.93;;
13374;SDS011;6756;51.354;15.754;2023-08-06T23:28:13;6.67;;;6.07;;
13374;SDS011;6756;51.354;15.754;2023-08-06T23:32:14;6.90;;;6.20;;
13374;SDS011;6756;51.354;15.754;2023-08-06T23:36:15;7.63;;;6.80;;
13374;SDS011;6756;51.354;15.754;2023-08-06T23:40:16;7.07;;;6.33;;
13374;SDS011;6756;51.354;15.754;2023-08-06T23:44:16;8.93;;;7.77;;
13374;SDS011;6756;51.354;15.754;2023-08-06T23:48:17;7.67;;;6.70;;
13374;SDS011;6756;51.354;15.754;2023-08-06T23:52:18;7.27;;;6.67;;
13374;SDS011;6756;51.354;15.754;2023-08-06T23:56:19;7.70;;;6.90;;
